sensor_id;sensor_type;location;lat;lon;timestamp;P1;durP1;ratioP1;P2;durP2;ratioP2
68980;SDS011;56033;51.880;12.632;2022-09-17T00:00:28;3.60;;;0.50;;
68980;SDS011;56033;51.880;12.632;2022-09-17T00:02:53;2.57;;;0.43;;
68980;SDS011;56033;51.880;12.632;2022-09-17T00:05:22;2.75;;;0.50;;
68980;SDS011;56033;51.880;12.632;2022-09-17T00:07:48;2.63;;;0.35;;
68980;SDS011;56033;51.880;12.632;2022-09-17T00:10:16;3.58;;;0.50;;
68980;SDS011;56033;51.880;12.632;2022-09-17T00:12:43;4.28;;;0.50;;
68980;SDS011;56033;51.880;12.632;2022-09-17T00:15:08;3.73;;;0.50;;
68980;SDS011;56033;51.880;12.632;2022-09-17T00:17:34;4.07;;;0.50;;
68980;SDS011;56033;51.880;12.632;2022-09-17T00:19:59;4.67;;;0.57;;
68980;SDS011;56033;51.880;12.632;2022-09-17T00:22:25;4.20;;;0.33;;
68980;SDS011;56033;51.880;12.632;2022-09-17T00:24:50;3.00;;;0.50;;
68980;SDS011;56033;51.880;12.632;2022-09-17T00:27:18;2.30;;;0.32;;
68980;SDS011;56033;51.880;12.632;2022-09-17T00:29:44;2.90;;;0.50;;
68980;SDS011;56033;51.880;12.632;2022-09-17T00:32:11;1.83;;;0.30;;
68980;SDS011;56033;51.880;12.632;2022-09-17T00:34:37;2.70;;;0.40;;
68980;SDS011;56033;51.880;12.632;2022-09-17T00:37:02;3.00;;;0.50;;
68980;SDS011;56033;51.880;12.632;2022-09-17T00:39:30;2.92;;;0.38;;
68980;SDS011;56033;51.880;12.632;2022-09-17T00:41:55;3.37;;;0.50;;
68980;SDS011;56033;51.880;12.632;2022-09-17T00:47:17;3.00;;;0.40;;
68980;SDS011;56033;51.880;12.632;2022-09-17T00:49:47;2.25;;;0.30;;
68980;SDS011;56033;51.880;12.632;2022-09-17T00:52:16;2.85;;;0.40;;
68980;SDS011;56033;51.880;12.632;2022-09-17T00:54:48;3.70;;;0.50;;
68980;SDS011;56033;51.880;12.632;2022-09-17T00:57:20;3.58;;;0.30;;
68980;SDS011;56033;51.880;12.632;2022-09-17T00:59:46;3.83;;;0.50;;
68980;SDS011;56033;51.880;12.632;2022-09-17T01:02:12;2.55;;;0.30;;
68980;SDS011;56033;51.880;12.632;2022-09-17T01:04:37;2.77;;;0.40;;
68980;SDS011;56033;51.880;12.632;2022-09-17T01:07:22;3.50;;;0.50;;
68980;SDS011;56033;51.880;12.632;2022-09-17T01:09:58;2.22;;;0.40;;
68980;SDS011;56033;51.880;12.632;2022-09-17T01:12:35;3.45;;;0.52;;
68980;SDS011;56033;51.880;12.632;2022-09-17T01:23:07;3.90;;;0.40;;
68980;SDS011;56033;51.880;12.632;2022-09-17T01:32:17;3.00;;;0.30;;
68980;SDS011;56033;51.880;12.632;2022-09-17T01:40:26;2.97;;;0.30;;
68980;SDS011;56033;51.880;12.632;2022-09-17T01:45:34;3.28;;;0.30;;
68980;SDS011;56033;51.880;12.632;2022-09-17T01:48:12;2.40;;;0.40;;
68980;SDS011;56033;51.880;12.632;2022-09-17T01:50:48;2.60;;;0.30;;
68980;SDS011;56033;51.880;12.632;2022-09-17T01:53:20;2.28;;;0.47;;
68980;SDS011;56033;51.880;12.632;2022-09-17T01:55:49;2.17;;;0.30;;
68980;SDS011;56033;51.880;12.632;2022-09-17T01:58:20;3.47;;;0.40;;
68980;SDS011;56033;51.880;12.632;2022-09-17T02:00:51;2.85;;;0.32;;
68980;SDS011;56033;51.880;12.632;2022-09-17T02:03:27;3.05;;;0.50;;
68980;SDS011;56033;51.880;12.632;2022-09-17T02:06:21;3.88;;;0.40;;
68980;SDS011;56033;51.880;12.632;2022-09-17T02:08:59;2.07;;;0.30;;
68980;SDS011;56033;51.880;12.632;2022-09-17T02:11:29;1.88;;;0.32;;
68980;SDS011;56033;51.880;12.632;2022-09-17T02:14:09;1.73;;;0.30;;
68980;SDS011;56033;51.880;12.632;2022-09-17T02:16:51;3.15;;;0.38;;
68980;SDS011;56033;51.880;12.632;2022-09-17T02:19:25;1.52;;;0.30;;
68980;SDS011;56033;51.880;12.632;2022-09-17T02:24:47;2.45;;;0.30;;
68980;SDS011;56033;51.880;12.632;2022-09-17T02:30:12;5.10;;;0.45;;
68980;SDS011;56033;51.880;12.632;2022-09-17T02:32:39;2.00;;;0.40;;
68980;SDS011;56033;51.880;12.632;2022-09-17T02:35:04;3.30;;;0.40;;
68980;SDS011;56033;51.880;12.632;2022-09-17T02:37:30;2.58;;;0.30;;
68980;SDS011;56033;51.880;12.632;2022-09-17T02:39:56;2.47;;;0.30;;
68980;SDS011;56033;51.880;12.632;2022-09-17T02:59:18;2.33;;;0.32;;
68980;SDS011;56033;51.880;12.632;2022-09-17T03:01:56;2.00;;;0.30;;
68980;SDS011;56033;51.880;12.632;2022-09-17T03:04:27;3.50;;;0.50;;
68980;SDS011;56033;51.880;12.632;2022-09-17T03:06:54;3.10;;;0.43;;
68980;SDS011;56033;51.880;12.632;2022-09-17T03:09:20;2.53;;;0.38;;
68980;SDS011;56033;51.880;12.632;2022-09-17T03:11:45;2.53;;;0.30;;
68980;SDS011;56033;51.880;12.632;2022-09-17T03:14:11;2.57;;;0.43;;
68980;SDS011;56033;51.880;12.632;2022-09-17T03:16:36;2.97;;;0.45;;
68980;SDS011;56033;51.880;12.632;2022-09-17T03:19:02;2.20;;;0.40;;
68980;SDS011;56033;51.880;12.632;2022-09-17T03:21:33;1.73;;;0.40;;
68980;SDS011;56033;51.880;12.632;2022-09-17T03:24:04;2.17;;;0.43;;
68980;SDS011;56033;51.880;12.632;2022-09-17T03:26:32;2.15;;;0.43;;
68980;SDS011;56033;51.880;12.632;2022-09-17T03:29:21;2.72;;;0.30;;
68980;SDS011;56033;51.880;12.632;2022-09-17T03:31:49;2.78;;;0.70;;
68980;SDS011;56033;51.880;12.632;2022-09-17T03:34:15;1.80;;;0.30;;
68980;SDS011;56033;51.880;12.632;2022-09-17T03:36:40;2.03;;;0.27;;
68980;SDS011;56033;51.880;12.632;2022-09-17T03:39:05;2.90;;;0.40;;
68980;SDS011;56033;51.880;12.632;2022-09-17T03:41:31;2.80;;;0.60;;
68980;SDS011;56033;51.880;12.632;2022-09-17T03:43:56;1.80;;;0.30;;
68980;SDS011;56033;51.880;12.632;2022-09-17T03:46:22;1.87;;;0.40;;
68980;SDS011;56033;51.880;12.632;2022-09-17T03:48:47;1.77;;;0.30;;
68980;SDS011;56033;51.880;12.632;2022-09-17T03:51:13;2.57;;;0.50;;
68980;SDS011;56033;51.880;12.632;2022-09-17T03:53:38;2.55;;;0.22;;
68980;SDS011;56033;51.880;12.632;2022-09-17T03:56:04;1.83;;;0.40;;
68980;SDS011;56033;51.880;12.632;2022-09-17T03:58:30;2.05;;;0.28;;
68980;SDS011;56033;51.880;12.632;2022-09-17T04:00:56;1.80;;;0.30;;
68980;SDS011;56033;51.880;12.632;2022-09-17T04:03:31;2.13;;;0.32;;
68980;SDS011;56033;51.880;12.632;2022-09-17T04:05:59;2.17;;;0.32;;
68980;SDS011;56033;51.880;12.632;2022-09-17T04:08:25;2.70;;;0.50;;
68980;SDS011;56033;51.880;12.632;2022-09-17T04:10:50;2.17;;;0.22;;
68980;SDS011;56033;51.880;12.632;2022-09-17T04:13:16;1.90;;;0.40;;
68980;SDS011;56033;51.880;12.632;2022-09-17T04:15:43;2.22;;;0.40;;
68980;SDS011;56033;51.880;12.632;2022-09-17T04:18:09;2.00;;;0.33;;
68980;SDS011;56033;51.880;12.632;2022-09-17T04:20:37;3.00;;;0.50;;
68980;SDS011;56033;51.880;12.632;2022-09-17T04:23:02;1.40;;;0.30;;
68980;SDS011;56033;51.880;12.632;2022-09-17T04:25:31;3.35;;;0.40;;
68980;SDS011;56033;51.880;12.632;2022-09-17T04:27:56;1.50;;;0.20;;
68980;SDS011;56033;51.880;12.632;2022-09-17T04:30:29;1.63;;;0.30;;
68980;SDS011;56033;51.880;12.632;2022-09-17T04:32:54;2.40;;;0.30;;
68980;SDS011;56033;51.880;12.632;2022-09-17T04:35:20;1.70;;;0.30;;
68980;SDS011;56033;51.880;12.632;2022-09-17T04:37:55;2.37;;;0.50;;
68980;SDS011;56033;51.880;12.632;2022-09-17T04:40:21;2.70;;;0.40;;
68980;SDS011;56033;51.880;12.632;2022-09-17T04:42:47;2.35;;;0.38;;
68980;SDS011;56033;51.880;12.632;2022-09-17T04:45:15;3.25;;;0.40;;
68980;SDS011;56033;51.880;12.632;2022-09-17T04:47:41;1.87;;;0.30;;
68980;SDS011;56033;51.880;12.632;2022-09-17T04:50:06;1.80;;;0.30;;
68980;SDS011;56033;51.880;12.632;2022-09-17T04:52:35;2.78;;;0.85;;
68980;SDS011;56033;51.880;12.632;2022-09-17T04:55:00;2.23;;;0.40;;
68980;SDS011;56033;51.880;12.632;2022-09-17T04:57:26;1.73;;;0.30;;
68980;SDS011;56033;51.880;12.632;2022-09-17T04:59:54;2.45;;;0.40;;
68980;SDS011;56033;51.880;12.632;2022-09-17T05:02:19;1.95;;;0.30;;
68980;SDS011;56033;51.880;12.632;2022-09-17T05:04:45;3.07;;;0.40;;
68980;SDS011;56033;51.880;12.632;2022-09-17T05:07:10;2.93;;;0.30;;
68980;SDS011;56033;51.880;12.632;2022-09-17T05:09:38;2.50;;;0.32;;
68980;SDS011;56033;51.880;12.632;2022-09-17T05:12:03;2.27;;;0.43;;
68980;SDS011;56033;51.880;12.632;2022-09-17T05:14:29;2.30;;;0.50;;
68980;SDS011;56033;51.880;12.632;2022-09-17T05:16:56;1.98;;;0.30;;
68980;SDS011;56033;51.880;12.632;2022-09-17T05:19:22;1.93;;;0.37;;
68980;SDS011;56033;51.880;12.632;2022-09-17T05:21:47;2.13;;;0.40;;
68980;SDS011;56033;51.880;12.632;2022-09-17T05:24:13;5.37;;;0.60;;
68980;SDS011;56033;51.880;12.632;2022-09-17T05:26:38;3.87;;;0.50;;
68980;SDS011;56033;51.880;12.632;2022-09-17T05:29:03;3.00;;;0.40;;
68980;SDS011;56033;51.880;12.632;2022-09-17T05:31:29;4.68;;;0.43;;
68980;SDS011;56033;51.880;12.632;2022-09-17T05:33:56;3.30;;;0.27;;
68980;SDS011;56033;51.880;12.632;2022-09-17T05:36:22;4.78;;;0.40;;
68980;SDS011;56033;51.880;12.632;2022-09-17T05:38:47;3.03;;;0.30;;
68980;SDS011;56033;51.880;12.632;2022-09-17T05:41:13;2.55;;;0.30;;
68980;SDS011;56033;51.880;12.632;2022-09-17T05:43:38;2.87;;;0.30;;
68980;SDS011;56033;51.880;12.632;2022-09-17T05:46:04;2.83;;;0.40;;
68980;SDS011;56033;51.880;12.632;2022-09-17T05:48:32;2.47;;;0.30;;
68980;SDS011;56033;51.880;12.632;2022-09-17T05:50:57;2.77;;;0.30;;
68980;SDS011;56033;51.880;12.632;2022-09-17T05:53:23;3.20;;;0.35;;
68980;SDS011;56033;51.880;12.632;2022-09-17T05:55:48;1.80;;;0.40;;
68980;SDS011;56033;51.880;12.632;2022-09-17T05:58:15;2.87;;;0.30;;
68980;SDS011;56033;51.880;12.632;2022-09-17T06:00:42;2.17;;;0.20;;
68980;SDS011;56033;51.880;12.632;2022-09-17T06:03:10;2.47;;;0.40;;
68980;SDS011;56033;51.880;12.632;2022-09-17T06:05:36;2.67;;;0.40;;
68980;SDS011;56033;51.880;12.632;2022-09-17T06:08:02;2.60;;;0.30;;
68980;SDS011;56033;51.880;12.632;2022-09-17T06:10:27;3.87;;;0.30;;
68980;SDS011;56033;51.880;12.632;2022-09-17T06:12:56;3.73;;;0.20;;
68980;SDS011;56033;51.880;12.632;2022-09-17T06:15:22;4.50;;;0.40;;
68980;SDS011;56033;51.880;12.632;2022-09-17T06:17:48;2.65;;;0.40;;
68980;SDS011;56033;51.880;12.632;2022-09-17T06:20:14;2.17;;;0.33;;
68980;SDS011;56033;51.880;12.632;2022-09-17T06:22:40;2.67;;;0.35;;
68980;SDS011;56033;51.880;12.632;2022-09-17T06:25:06;2.03;;;0.30;;
68980;SDS011;56033;51.880;12.632;2022-09-17T06:27:32;1.95;;;0.30;;
68980;SDS011;56033;51.880;12.632;2022-09-17T06:29:58;2.50;;;0.25;;
68980;SDS011;56033;51.880;12.632;2022-09-17T06:32:24;2.25;;;0.60;;
68980;SDS011;56033;51.880;12.632;2022-09-17T06:34:53;2.35;;;0.40;;
68980;SDS011;56033;51.880;12.632;2022-09-17T06:37:26;2.20;;;0.30;;
68980;SDS011;56033;51.880;12.632;2022-09-17T06:39:52;2.85;;;0.40;;
68980;SDS011;56033;51.880;12.632;2022-09-17T06:42:18;1.80;;;0.30;;
68980;SDS011;56033;51.880;12.632;2022-09-17T06:44:50;2.80;;;0.38;;
68980;SDS011;56033;51.880;12.632;2022-09-17T06:47:16;2.67;;;0.30;;
68980;SDS011;56033;51.880;12.632;2022-09-17T06:49:41;3.00;;;0.30;;
68980;SDS011;56033;51.880;12.632;2022-09-17T06:52:07;3.72;;;0.60;;
68980;SDS011;56033;51.880;12.632;2022-09-17T06:54:32;4.03;;;0.50;;
68980;SDS011;56033;51.880;12.632;2022-09-17T06:56:58;3.13;;;0.50;;
68980;SDS011;56033;51.880;12.632;2022-09-17T06:59:23;4.23;;;0.50;;
68980;SDS011;56033;51.880;12.632;2022-09-17T07:01:52;2.70;;;0.40;;
68980;SDS011;56033;51.880;12.632;2022-09-17T07:04:17;2.42;;;0.30;;
68980;SDS011;56033;51.880;12.632;2022-09-17T07:06:43;2.97;;;0.40;;
68980;SDS011;56033;51.880;12.632;2022-09-17T07:09:11;4.78;;;0.40;;
68980;SDS011;56033;51.880;12.632;2022-09-17T07:11:37;7.67;;;0.33;;
68980;SDS011;56033;51.880;12.632;2022-09-17T07:14:03;13.77;;;0.50;;
68980;SDS011;56033;51.880;12.632;2022-09-17T07:16:31;5.10;;;0.50;;
68980;SDS011;56033;51.880;12.632;2022-09-17T07:19:00;6.03;;;0.30;;
68980;SDS011;56033;51.880;12.632;2022-09-17T07:21:26;5.43;;;0.37;;
68980;SDS011;56033;51.880;12.632;2022-09-17T07:23:51;4.63;;;0.60;;
68980;SDS011;56033;51.880;12.632;2022-09-17T07:26:24;6.17;;;0.50;;
68980;SDS011;56033;51.880;12.632;2022-09-17T07:28:49;5.10;;;0.50;;
68980;SDS011;56033;51.880;12.632;2022-09-17T07:31:15;6.77;;;0.47;;
68980;SDS011;56033;51.880;12.632;2022-09-17T07:33:40;3.50;;;0.53;;
68980;SDS011;56033;51.880;12.632;2022-09-17T07:36:07;2.30;;;0.40;;
68980;SDS011;56033;51.880;12.632;2022-09-17T07:38:52;4.70;;;0.47;;
68980;SDS011;56033;51.880;12.632;2022-09-17T07:41:17;3.83;;;0.50;;
68980;SDS011;56033;51.880;12.632;2022-09-17T07:43:43;7.30;;;0.60;;
68980;SDS011;56033;51.880;12.632;2022-09-17T07:46:12;4.67;;;0.43;;
68980;SDS011;56033;51.880;12.632;2022-09-17T07:48:42;3.53;;;0.40;;
68980;SDS011;56033;51.880;12.632;2022-09-17T07:51:09;3.77;;;0.50;;
68980;SDS011;56033;51.880;12.632;2022-09-17T07:53:39;3.70;;;0.40;;
68980;SDS011;56033;51.880;12.632;2022-09-17T07:56:05;5.27;;;0.63;;
68980;SDS011;56033;51.880;12.632;2022-09-17T07:58:31;3.58;;;0.30;;
68980;SDS011;56033;51.880;12.632;2022-09-17T08:03:33;4.05;;;0.60;;
68980;SDS011;56033;51.880;12.632;2022-09-17T08:06:00;5.05;;;0.40;;
68980;SDS011;56033;51.880;12.632;2022-09-17T08:08:33;7.03;;;0.70;;
68980;SDS011;56033;51.880;12.632;2022-09-17T08:11:02;4.80;;;0.28;;
68980;SDS011;56033;51.880;12.632;2022-09-17T08:13:32;3.57;;;0.40;;
68980;SDS011;56033;51.880;12.632;2022-09-17T08:16:01;3.38;;;0.32;;
68980;SDS011;56033;51.880;12.632;2022-09-17T08:18:29;5.07;;;0.60;;
68980;SDS011;56033;51.880;12.632;2022-09-17T08:20:56;4.40;;;0.45;;
68980;SDS011;56033;51.880;12.632;2022-09-17T08:23:22;2.72;;;0.30;;
68980;SDS011;56033;51.880;12.632;2022-09-17T08:25:54;7.90;;;0.50;;
68980;SDS011;56033;51.880;12.632;2022-09-17T08:28:21;4.00;;;0.30;;
68980;SDS011;56033;51.880;12.632;2022-09-17T08:30:48;3.90;;;0.40;;
68980;SDS011;56033;51.880;12.632;2022-09-17T08:33:14;3.70;;;0.30;;
68980;SDS011;56033;51.880;12.632;2022-09-17T08:35:40;3.78;;;0.40;;
68980;SDS011;56033;51.880;12.632;2022-09-17T08:38:06;3.73;;;0.37;;
68980;SDS011;56033;51.880;12.632;2022-09-17T08:40:32;5.53;;;0.60;;
68980;SDS011;56033;51.880;12.632;2022-09-17T08:43:07;9.68;;;0.40;;
68980;SDS011;56033;51.880;12.632;2022-09-17T08:45:37;12.52;;;0.63;;
68980;SDS011;56033;51.880;12.632;2022-09-17T08:48:03;15.90;;;1.20;;
68980;SDS011;56033;51.880;12.632;2022-09-17T08:50:30;8.77;;;0.60;;
68980;SDS011;56033;51.880;12.632;2022-09-17T08:53:12;8.05;;;0.73;;
68980;SDS011;56033;51.880;12.632;2022-09-17T08:56:06;11.23;;;0.50;;
68980;SDS011;56033;51.880;12.632;2022-09-17T09:04:24;5.90;;;0.40;;
68980;SDS011;56033;51.880;12.632;2022-09-17T09:07:14;9.40;;;0.60;;
68980;SDS011;56033;51.880;12.632;2022-09-17T09:12:27;7.23;;;0.87;;
68980;SDS011;56033;51.880;12.632;2022-09-17T09:14:58;9.55;;;0.70;;
68980;SDS011;56033;51.880;12.632;2022-09-17T09:17:27;8.25;;;0.77;;
68980;SDS011;56033;51.880;12.632;2022-09-17T09:20:01;11.85;;;0.90;;
68980;SDS011;56033;51.880;12.632;2022-09-17T09:29:41;10.02;;;0.85;;
68980;SDS011;56033;51.880;12.632;2022-09-17T09:35:40;12.75;;;0.70;;
68980;SDS011;56033;51.880;12.632;2022-09-17T09:44:16;9.45;;;0.63;;
68980;SDS011;56033;51.880;12.632;2022-09-17T09:53:25;11.98;;;0.50;;
68980;SDS011;56033;51.880;12.632;2022-09-17T10:02:48;6.05;;;0.40;;
68980;SDS011;56033;51.880;12.632;2022-09-17T10:05:25;6.18;;;0.50;;
68980;SDS011;56033;51.880;12.632;2022-09-17T10:08:09;5.55;;;0.73;;
68980;SDS011;56033;51.880;12.632;2022-09-17T10:11:00;7.57;;;0.40;;
68980;SDS011;56033;51.880;12.632;2022-09-17T10:14:18;6.00;;;0.57;;
68980;SDS011;56033;51.880;12.632;2022-09-17T10:22:39;7.38;;;0.52;;
68980;SDS011;56033;51.880;12.632;2022-09-17T10:28:45;4.25;;;0.40;;
68980;SDS011;56033;51.880;12.632;2022-09-17T10:41:54;4.70;;;0.50;;
68980;SDS011;56033;51.880;12.632;2022-09-17T10:45:01;5.28;;;0.70;;
68980;SDS011;56033;51.880;12.632;2022-09-17T10:48:12;4.63;;;0.50;;
68980;SDS011;56033;51.880;12.632;2022-09-17T10:54:01;5.55;;;0.50;;
68980;SDS011;56033;51.880;12.632;2022-09-17T10:56:41;4.80;;;0.60;;
68980;SDS011;56033;51.880;12.632;2022-09-17T11:18:39;5.22;;;0.30;;
68980;SDS011;56033;51.880;12.632;2022-09-17T11:30:20;5.43;;;0.63;;
68980;SDS011;56033;51.880;12.632;2022-09-17T11:36:00;3.13;;;0.65;;
68980;SDS011;56033;51.880;12.632;2022-09-17T11:39:14;3.05;;;0.50;;
68980;SDS011;56033;51.880;12.632;2022-09-17T11:41:55;3.57;;;0.50;;
68980;SDS011;56033;51.880;12.632;2022-09-17T11:44:38;5.18;;;0.55;;
68980;SDS011;56033;51.880;12.632;2022-09-17T11:47:24;4.97;;;0.50;;
68980;SDS011;56033;51.880;12.632;2022-09-17T11:53:19;3.33;;;0.40;;
68980;SDS011;56033;51.880;12.632;2022-09-17T11:55:54;3.97;;;0.30;;
68980;SDS011;56033;51.880;12.632;2022-09-17T12:14:03;3.22;;;0.25;;
68980;SDS011;56033;51.880;12.632;2022-09-17T12:17:22;2.35;;;0.30;;
68980;SDS011;56033;51.880;12.632;2022-09-17T12:20:06;3.38;;;0.40;;
68980;SDS011;56033;51.880;12.632;2022-09-17T12:22:52;7.03;;;0.60;;
68980;SDS011;56033;51.880;12.632;2022-09-17T12:57:09;2.93;;;0.30;;
68980;SDS011;56033;51.880;12.632;2022-09-17T13:00:16;4.22;;;0.70;;
68980;SDS011;56033;51.880;12.632;2022-09-17T13:03:06;4.15;;;0.35;;
68980;SDS011;56033;51.880;12.632;2022-09-17T13:09:04;2.35;;;0.30;;
68980;SDS011;56033;51.880;12.632;2022-09-17T13:15:02;2.78;;;0.40;;
68980;SDS011;56033;51.880;12.632;2022-09-17T13:21:27;3.45;;;0.50;;
68980;SDS011;56033;51.880;12.632;2022-09-17T13:27:22;2.63;;;0.40;;
68980;SDS011;56033;51.880;12.632;2022-09-17T13:38:49;3.70;;;0.30;;
68980;SDS011;56033;51.880;12.632;2022-09-17T13:41:19;5.17;;;0.53;;
68980;SDS011;56033;51.880;12.632;2022-09-17T13:46:51;2.15;;;0.35;;
68980;SDS011;56033;51.880;12.632;2022-09-17T13:49:27;2.15;;;0.32;;
68980;SDS011;56033;51.880;12.632;2022-09-17T13:55:56;3.00;;;0.50;;
68980;SDS011;56033;51.880;12.632;2022-09-17T13:58:32;4.22;;;0.40;;
68980;SDS011;56033;51.880;12.632;2022-09-17T14:03:45;2.22;;;0.50;;
68980;SDS011;56033;51.880;12.632;2022-09-17T14:23:45;7.30;;;0.60;;
68980;SDS011;56033;51.880;12.632;2022-09-17T14:32:15;8.15;;;0.55;;
68980;SDS011;56033;51.880;12.632;2022-09-17T14:35:13;5.82;;;0.60;;
68980;SDS011;56033;51.880;12.632;2022-09-17T14:41:23;6.60;;;0.40;;
68980;SDS011;56033;51.880;12.632;2022-09-17T14:44:05;6.03;;;0.60;;
68980;SDS011;56033;51.880;12.632;2022-09-17T14:57:28;5.07;;;0.43;;
68980;SDS011;56033;51.880;12.632;2022-09-17T15:02:48;7.53;;;0.32;;
68980;SDS011;56033;51.880;12.632;2022-09-17T15:05:46;9.13;;;0.55;;
68980;SDS011;56033;51.880;12.632;2022-09-17T15:09:25;4.40;;;0.20;;
68980;SDS011;56033;51.880;12.632;2022-09-17T15:12:10;5.72;;;0.38;;
68980;SDS011;56033;51.880;12.632;2022-09-17T15:15:05;7.05;;;0.30;;
68980;SDS011;56033;51.880;12.632;2022-09-17T15:17:56;5.15;;;0.30;;
68980;SDS011;56033;51.880;12.632;2022-09-17T15:20:31;3.97;;;0.30;;
68980;SDS011;56033;51.880;12.632;2022-09-17T15:25:40;9.02;;;0.40;;
68980;SDS011;56033;51.880;12.632;2022-09-17T15:28:23;7.53;;;0.30;;
68980;SDS011;56033;51.880;12.632;2022-09-17T15:34:09;7.32;;;0.30;;
68980;SDS011;56033;51.880;12.632;2022-09-17T15:44:23;5.18;;;0.45;;
68980;SDS011;56033;51.880;12.632;2022-09-17T15:50:23;3.88;;;0.28;;
68980;SDS011;56033;51.880;12.632;2022-09-17T15:59:42;3.40;;;0.20;;
68980;SDS011;56033;51.880;12.632;2022-09-17T16:01:55;4.18;;;0.30;;
68980;SDS011;56033;51.880;12.632;2022-09-17T16:04:37;4.60;;;0.30;;
68980;SDS011;56033;51.880;12.632;2022-09-17T16:12:30;5.10;;;0.30;;
68980;SDS011;56033;51.880;12.632;2022-09-17T16:14:56;2.95;;;0.28;;
68980;SDS011;56033;51.880;12.632;2022-09-17T16:20:41;5.20;;;0.40;;
68980;SDS011;56033;51.880;12.632;2022-09-17T16:26:43;4.95;;;0.28;;
68980;SDS011;56033;51.880;12.632;2022-09-17T16:29:12;5.18;;;0.30;;
68980;SDS011;56033;51.880;12.632;2022-09-17T16:31:42;7.88;;;0.47;;
68980;SDS011;56033;51.880;12.632;2022-09-17T16:34:10;3.87;;;0.30;;
68980;SDS011;56033;51.880;12.632;2022-09-17T16:36:44;5.07;;;0.38;;
68980;SDS011;56033;51.880;12.632;2022-09-17T16:39:16;4.13;;;0.30;;
68980;SDS011;56033;51.880;12.632;2022-09-17T16:41:44;4.78;;;0.20;;
68980;SDS011;56033;51.880;12.632;2022-09-17T16:44:14;4.43;;;0.40;;
68980;SDS011;56033;51.880;12.632;2022-09-17T16:46:43;4.22;;;0.30;;
68980;SDS011;56033;51.880;12.632;2022-09-17T16:51:55;5.87;;;0.30;;
68980;SDS011;56033;51.880;12.632;2022-09-17T16:54:30;6.35;;;0.30;;
68980;SDS011;56033;51.880;12.632;2022-09-17T16:57:20;7.60;;;0.47;;
68980;SDS011;56033;51.880;12.632;2022-09-17T16:59:48;6.72;;;0.30;;
68980;SDS011;56033;51.880;12.632;2022-09-17T17:02:16;14.60;;;0.85;;
68980;SDS011;56033;51.880;12.632;2022-09-17T17:04:42;28.13;;;1.83;;
68980;SDS011;56033;51.880;12.632;2022-09-17T17:07:10;24.43;;;1.20;;
68980;SDS011;56033;51.880;12.632;2022-09-17T17:09:58;10.17;;;0.83;;
68980;SDS011;56033;51.880;12.632;2022-09-17T17:12:27;14.65;;;1.05;;
68980;SDS011;56033;51.880;12.632;2022-09-17T17:14:52;14.10;;;1.43;;
68980;SDS011;56033;51.880;12.632;2022-09-17T17:17:23;14.37;;;0.60;;
68980;SDS011;56033;51.880;12.632;2022-09-17T17:19:51;8.37;;;0.60;;
68980;SDS011;56033;51.880;12.632;2022-09-17T17:22:35;12.52;;;1.00;;
68980;SDS011;56033;51.880;12.632;2022-09-17T17:25:04;14.65;;;0.80;;
68980;SDS011;56033;51.880;12.632;2022-09-17T17:27:36;8.98;;;0.60;;
68980;SDS011;56033;51.880;12.632;2022-09-17T17:30:25;11.38;;;0.60;;
68980;SDS011;56033;51.880;12.632;2022-09-17T17:32:51;9.77;;;0.80;;
68980;SDS011;56033;51.880;12.632;2022-09-17T17:35:24;6.28;;;0.50;;
68980;SDS011;56033;51.880;12.632;2022-09-17T17:37:50;9.15;;;0.50;;
68980;SDS011;56033;51.880;12.632;2022-09-17T17:40:25;9.53;;;0.70;;
68980;SDS011;56033;51.880;12.632;2022-09-17T17:42:51;9.70;;;0.90;;
68980;SDS011;56033;51.880;12.632;2022-09-17T17:45:16;11.00;;;0.50;;
68980;SDS011;56033;51.880;12.632;2022-09-17T17:47:47;8.35;;;0.52;;
68980;SDS011;56033;51.880;12.632;2022-09-17T17:50:16;6.63;;;0.50;;
68980;SDS011;56033;51.880;12.632;2022-09-17T17:52:46;6.20;;;0.60;;
68980;SDS011;56033;51.880;12.632;2022-09-17T17:55:16;11.68;;;0.60;;
68980;SDS011;56033;51.880;12.632;2022-09-17T17:57:41;12.10;;;0.73;;
68980;SDS011;56033;51.880;12.632;2022-09-17T18:00:17;10.25;;;0.70;;
68980;SDS011;56033;51.880;12.632;2022-09-17T18:02:43;7.30;;;0.50;;
68980;SDS011;56033;51.880;12.632;2022-09-17T18:05:08;7.47;;;0.50;;
68980;SDS011;56033;51.880;12.632;2022-09-17T18:07:35;9.23;;;0.60;;
68980;SDS011;56033;51.880;12.632;2022-09-17T18:10:03;8.10;;;0.40;;
68980;SDS011;56033;51.880;12.632;2022-09-17T18:12:29;11.38;;;0.60;;
68980;SDS011;56033;51.880;12.632;2022-09-17T18:14:56;9.43;;;1.00;;
68980;SDS011;56033;51.880;12.632;2022-09-17T18:17:22;7.57;;;0.57;;
68980;SDS011;56033;51.880;12.632;2022-09-17T18:19:47;6.60;;;0.30;;
68980;SDS011;56033;51.880;12.632;2022-09-17T18:22:12;6.07;;;0.50;;
68980;SDS011;56033;51.880;12.632;2022-09-17T18:24:38;8.75;;;0.40;;
68980;SDS011;56033;51.880;12.632;2022-09-17T18:27:03;5.80;;;0.40;;
68980;SDS011;56033;51.880;12.632;2022-09-17T18:29:29;9.63;;;0.53;;
68980;SDS011;56033;51.880;12.632;2022-09-17T18:31:54;6.13;;;0.57;;
68980;SDS011;56033;51.880;12.632;2022-09-17T18:34:19;8.97;;;0.50;;
68980;SDS011;56033;51.880;12.632;2022-09-17T18:36:45;8.10;;;0.65;;
68980;SDS011;56033;51.880;12.632;2022-09-17T18:39:11;5.97;;;0.70;;
68980;SDS011;56033;51.880;12.632;2022-09-17T18:41:39;7.00;;;0.38;;
68980;SDS011;56033;51.880;12.632;2022-09-17T18:44:06;8.85;;;0.43;;
68980;SDS011;56033;51.880;12.632;2022-09-17T18:46:32;8.02;;;0.55;;
68980;SDS011;56033;51.880;12.632;2022-09-17T18:48:58;7.97;;;0.50;;
68980;SDS011;56033;51.880;12.632;2022-09-17T18:51:24;5.97;;;0.50;;
68980;SDS011;56033;51.880;12.632;2022-09-17T18:53:51;3.28;;;0.30;;
68980;SDS011;56033;51.880;12.632;2022-09-17T18:56:18;5.50;;;0.53;;
68980;SDS011;56033;51.880;12.632;2022-09-17T18:58:48;7.28;;;0.40;;
68980;SDS011;56033;51.880;12.632;2022-09-17T19:01:16;3.65;;;0.30;;
68980;SDS011;56033;51.880;12.632;2022-09-17T19:03:45;3.75;;;0.35;;
68980;SDS011;56033;51.880;12.632;2022-09-17T19:06:11;3.23;;;0.30;;
68980;SDS011;56033;51.880;12.632;2022-09-17T19:08:46;5.72;;;0.30;;
68980;SDS011;56033;51.880;12.632;2022-09-17T19:11:19;6.43;;;0.43;;
68980;SDS011;56033;51.880;12.632;2022-09-17T19:13:49;5.88;;;0.52;;
68980;SDS011;56033;51.880;12.632;2022-09-17T19:16:15;3.63;;;0.20;;
68980;SDS011;56033;51.880;12.632;2022-09-17T19:18:41;4.75;;;0.47;;
68980;SDS011;56033;51.880;12.632;2022-09-17T19:21:09;8.38;;;0.50;;
68980;SDS011;56033;51.880;12.632;2022-09-17T19:23:40;6.72;;;0.50;;
68980;SDS011;56033;51.880;12.632;2022-09-17T19:26:07;3.73;;;0.30;;
68980;SDS011;56033;51.880;12.632;2022-09-17T19:28:34;3.92;;;0.38;;
68980;SDS011;56033;51.880;12.632;2022-09-17T19:31:03;5.85;;;0.38;;
68980;SDS011;56033;51.880;12.632;2022-09-17T19:33:29;4.67;;;0.40;;
68980;SDS011;56033;51.880;12.632;2022-09-17T19:35:58;6.55;;;0.50;;
68980;SDS011;56033;51.880;12.632;2022-09-17T19:38:28;5.73;;;0.50;;
68980;SDS011;56033;51.880;12.632;2022-09-17T19:40:56;4.80;;;0.35;;
68980;SDS011;56033;51.880;12.632;2022-09-17T19:43:22;4.57;;;0.60;;
68980;SDS011;56033;51.880;12.632;2022-09-17T19:45:48;5.72;;;0.50;;
68980;SDS011;56033;51.880;12.632;2022-09-17T19:48:13;5.37;;;0.27;;
68980;SDS011;56033;51.880;12.632;2022-09-17T19:50:48;2.87;;;0.20;;
68980;SDS011;56033;51.880;12.632;2022-09-17T19:53:14;6.17;;;0.40;;
68980;SDS011;56033;51.880;12.632;2022-09-17T19:55:39;6.13;;;0.30;;
68980;SDS011;56033;51.880;12.632;2022-09-17T19:58:06;3.53;;;0.40;;
68980;SDS011;56033;51.880;12.632;2022-09-17T20:00:32;3.88;;;0.32;;